createdAt,value
2022-11-03T00:01:39.523Z,10.98
2022-11-03T00:04:10.298Z,10.89
2022-11-03T00:06:39.708Z,10.95
2022-11-03T00:09:10.185Z,11.00
2022-11-03T00:11:40.213Z,10.85
2022-11-03T00:14:10.353Z,10.85
2022-11-03T00:16:40.003Z,10.86
2022-11-03T00:19:10.040Z,10.75
2022-11-03T00:21:38.927Z,10.78
2022-11-03T00:24:08.753Z,10.83
2022-11-03T00:26:37.878Z,10.84
2022-11-03T00:29:10.564Z,10.80
2022-11-03T00:31:40.969Z,10.70
2022-11-03T00:34:10.597Z,10.67
2022-11-03T00:36:41.582Z,10.59
2022-11-03T00:39:10.867Z,10.72
2022-11-03T00:41:39.901Z,10.85
2022-11-03T00:44:10.147Z,10.87
2022-11-03T00:46:38.834Z,10.88
2022-11-03T00:49:07.595Z,10.76
2022-11-03T00:51:36.290Z,10.60
2022-11-03T00:54:06.826Z,10.54
2022-11-03T00:56:37.264Z,10.48
2022-11-03T00:59:07.700Z,10.52
2022-11-03T01:01:45.224Z,10.59
2022-11-03T01:04:33.473Z,10.59
2022-11-03T01:07:02.815Z,10.66
2022-11-03T01:09:35.303Z,10.67
2022-11-03T01:12:07.077Z,10.71
2022-11-03T01:14:38.367Z,10.72
2022-11-03T01:17:07.854Z,10.63
2022-11-03T01:19:36.683Z,10.44
2022-11-03T01:22:09.536Z,10.27
2022-11-03T01:24:40.749Z,10.30
2022-11-03T01:27:09.831Z,10.37
2022-11-03T01:29:38.496Z,10.36
2022-11-03T01:32:08.505Z,10.28
2022-11-03T01:34:37.308Z,10.28
2022-11-03T01:37:05.997Z,10.30
2022-11-03T01:39:35.143Z,10.27
2022-11-03T01:42:04.029Z,10.26
2022-11-03T01:44:35.209Z,10.34
2022-11-03T01:47:12.751Z,10.36
2022-11-03T01:49:47.001Z,10.27
2022-11-03T01:52:20.366Z,10.21
2022-11-03T01:54:52.039Z,9.97
2022-11-03T01:57:25.680Z,9.89
2022-11-03T01:59:58.107Z,9.94
2022-11-03T02:02:27.705Z,9.90
2022-11-03T02:05:00.349Z,9.81
2022-11-03T02:07:34.184Z,9.75
2022-11-03T02:10:03.532Z,9.74
2022-11-03T02:12:33.551Z,9.86
2022-11-03T02:15:06.564Z,9.94
2022-11-03T02:17:36.486Z,9.91
2022-11-03T02:20:08.324Z,9.87
2022-11-03T02:23:17.827Z,9.85
2022-11-03T02:25:48.468Z,9.79
2022-11-03T02:28:19.736Z,9.73
2022-11-03T02:30:54.698Z,9.68
2022-11-03T02:33:36.043Z,9.72
2022-11-03T02:36:12.075Z,9.82
2022-11-03T02:38:53.491Z,9.86
2022-11-03T02:41:24.462Z,9.69
2022-11-03T02:43:55.776Z,9.66
2022-11-03T02:46:26.193Z,9.58
2022-11-03T02:48:56.737Z,9.57
2022-11-03T02:51:25.414Z,9.51
2022-11-03T02:54:03.257Z,9.50
2022-11-03T02:56:37.132Z,9.49
2022-11-03T02:59:10.262Z,9.43
2022-11-03T03:01:47.424Z,9.36
2022-11-03T03:04:20.036Z,9.42
2022-11-03T03:06:53.855Z,9.48
2022-11-03T03:09:28.805Z,9.46
2022-11-03T03:12:01.280Z,9.33
2022-11-03T03:14:32.367Z,9.37
2022-11-03T03:17:05.440Z,9.29
2022-11-03T03:19:44.333Z,9.25
2022-11-03T03:22:21.605Z,9.23
2022-11-03T03:24:56.459Z,9.17
2022-11-03T03:27:28.135Z,9.07
2022-11-03T03:30:01.396Z,9.07
2022-11-03T03:32:35.832Z,8.97
2022-11-03T03:35:09.002Z,8.85
2022-11-03T03:37:41.243Z,8.83
2022-11-03T03:40:16.320Z,8.82
2022-11-03T03:42:47.489Z,8.77
2022-11-03T03:45:17.554Z,8.96
2022-11-03T03:47:47.015Z,9.03
2022-11-03T03:50:16.328Z,9.03
2022-11-03T03:52:44.986Z,8.88
2022-11-03T03:55:19.737Z,8.74
2022-11-03T03:57:47.798Z,8.62
2022-11-03T04:00:17.262Z,8.68
2022-11-03T04:02:46.022Z,8.84
2022-11-03T04:05:14.882Z,8.77
2022-11-03T04:07:49.684Z,8.74
2022-11-03T04:10:18.491Z,8.75
2022-11-03T04:13:05.494Z,8.69
2022-11-03T04:15:52.639Z,8.74
2022-11-03T04:18:41.166Z,8.86
2022-11-03T04:21:31.282Z,8.75
2022-11-03T04:24:00.479Z,8.83
2022-11-03T04:26:29.477Z,8.88
2022-11-03T04:29:00.312Z,8.87
2022-11-03T04:31:38.134Z,8.60
2022-11-03T04:34:15.789Z,8.48
2022-11-03T04:36:46.456Z,8.48
2022-11-03T04:39:19.156Z,8.53
2022-11-03T04:41:47.875Z,8.38
2022-11-03T04:44:17.195Z,8.39
2022-11-03T04:46:46.804Z,8.36
2022-11-03T04:49:22.229Z,8.34
2022-11-03T04:51:51.398Z,8.28
2022-11-03T04:54:23.510Z,8.23
2022-11-03T04:56:52.511Z,8.23
2022-11-03T04:59:21.192Z,8.26
2022-11-03T05:01:50.173Z,8.25
2022-11-03T05:04:19.359Z,8.13
2022-11-03T05:06:51.530Z,8.09
2022-11-03T05:09:25.185Z,8.07
2022-11-03T05:11:53.932Z,7.92
2022-11-03T05:14:24.864Z,7.83
2022-11-03T05:16:55.589Z,7.85
2022-11-03T05:19:27.416Z,7.94
2022-11-03T05:21:58.775Z,7.91
2022-11-03T05:24:28.230Z,7.88
2022-11-03T05:26:59.128Z,7.85
2022-11-03T05:29:33.313Z,7.76
2022-11-03T05:32:02.058Z,7.77
2022-11-03T05:34:37.723Z,7.70
2022-11-03T05:37:26.708Z,7.70
2022-11-03T05:39:57.907Z,7.79
2022-11-03T05:42:38.004Z,7.68
2022-11-03T05:45:16.050Z,7.70
2022-11-03T05:47:44.829Z,7.71
2022-11-03T05:50:19.390Z,7.80
2022-11-03T05:52:50.022Z,7.86
2022-11-03T05:55:27.777Z,7.98
2022-11-03T05:57:59.076Z,8.00
2022-11-03T06:00:30.617Z,8.07
2022-11-03T06:03:00.357Z,8.16
2022-11-03T06:05:31.235Z,8.14
2022-11-03T06:08:03.865Z,8.10
2022-11-03T06:10:37.625Z,8.10
2022-11-03T06:13:14.592Z,8.14
2022-11-03T06:15:46.195Z,8.32
2022-11-03T06:18:19.737Z,8.49
2022-11-03T06:20:52.354Z,8.75
2022-11-03T06:23:23.373Z,9.08
2022-11-03T06:25:54.909Z,9.42
2022-11-03T06:28:27.113Z,9.83
2022-11-03T06:30:56.830Z,10.18
2022-11-03T06:33:28.190Z,10.57
2022-11-03T06:36:02.594Z,11.07
2022-11-03T06:38:34.233Z,11.59
2022-11-03T06:41:03.091Z,11.93
2022-11-03T06:43:40.154Z,12.20
2022-11-03T06:46:19.678Z,12.28
2022-11-03T06:48:48.588Z,11.94
2022-11-03T06:51:21.250Z,11.68
2022-11-03T06:53:53.412Z,11.74
2022-11-03T06:56:25.296Z,12.21
2022-11-03T06:58:56.449Z,12.59
2022-11-03T07:01:30.085Z,12.46
2022-11-03T07:04:04.133Z,12.47
2022-11-03T07:06:36.872Z,12.60
2022-11-03T07:09:09.428Z,12.46
2022-11-03T07:11:44.037Z,12.54
2022-11-03T07:14:15.367Z,12.43
2022-11-03T07:16:47.733Z,12.21
2022-11-03T07:19:21.792Z,12.18
2022-11-03T07:21:53.232Z,12.22
2022-11-03T07:24:24.659Z,12.29
2022-11-03T07:26:59.301Z,12.22
2022-11-03T07:29:29.621Z,12.50
2022-11-03T07:32:00.623Z,12.73
2022-11-03T07:34:32.890Z,12.73
2022-11-03T07:37:02.722Z,12.69
2022-11-03T07:39:37.661Z,13.07
2022-11-03T07:42:14.031Z,13.53
2022-11-03T07:44:43.063Z,14.06
2022-11-03T07:47:14.389Z,14.53
2022-11-03T07:49:43.767Z,14.95
2022-11-03T07:52:14.988Z,15.30
2022-11-03T07:54:44.558Z,15.44
2022-11-03T07:57:21.566Z,15.69
2022-11-03T07:59:52.219Z,15.92
2022-11-03T08:02:31.154Z,16.07
2022-11-03T08:04:59.856Z,16.10
2022-11-03T08:07:29.833Z,16.18
2022-11-03T08:09:58.838Z,16.18
2022-11-03T08:12:27.684Z,16.17
2022-11-03T08:14:56.607Z,16.35
2022-11-03T08:17:25.863Z,16.39
2022-11-03T08:19:54.657Z,16.29
2022-11-03T08:22:25.514Z,16.22
2022-11-03T08:24:54.317Z,16.20
2022-11-03T08:27:23.042Z,16.28
2022-11-03T08:29:52.159Z,16.39
2022-11-03T08:32:20.809Z,16.48
2022-11-03T08:34:49.656Z,16.46
2022-11-03T08:37:18.350Z,16.45
2022-11-03T08:39:47.165Z,16.53
2022-11-03T08:42:16.111Z,16.59
2022-11-03T08:44:44.753Z,16.55
2022-11-03T08:47:13.522Z,16.53
2022-11-03T08:49:42.276Z,16.55
2022-11-03T08:52:11.038Z,16.59
2022-11-03T08:54:39.815Z,16.73
2022-11-03T08:57:08.647Z,16.79
2022-11-03T08:59:38.370Z,16.84
2022-11-03T09:02:08.123Z,16.82
2022-11-03T09:04:36.947Z,16.82
2022-11-03T09:07:05.834Z,16.88
2022-11-03T09:12:23.713Z,17.00
2022-11-03T09:14:52.704Z,16.90
2022-11-03T09:17:21.526Z,16.70
2022-11-03T09:19:50.222Z,16.76
2022-11-03T09:22:19.379Z,16.83
2022-11-03T09:24:48.133Z,16.90
2022-11-03T09:27:16.975Z,16.93
2022-11-03T09:30:11.222Z,16.89
2022-11-03T09:32:35.147Z,16.85
2022-11-03T09:35:04.402Z,16.96
2022-11-03T09:37:33.235Z,17.07
2022-11-03T09:40:02.122Z,17.04
2022-11-03T09:42:34.004Z,16.99
2022-11-03T09:45:04.279Z,16.85
2022-11-03T09:47:36.192Z,16.79
2022-11-03T09:50:08.258Z,16.64
2022-11-03T09:52:38.054Z,16.70
2022-11-03T09:55:15.869Z,16.73
2022-11-03T09:57:45.917Z,16.74
2022-11-03T10:00:25.380Z,16.69
2022-11-03T10:02:55.625Z,16.58
2022-11-03T10:05:26.832Z,16.51
2022-11-03T10:07:59.477Z,16.55
2022-11-03T10:10:29.879Z,16.43
2022-11-03T10:12:59.737Z,16.29
2022-11-03T10:15:28.946Z,16.34
2022-11-03T10:17:58.139Z,16.27
2022-11-03T10:20:29.259Z,16.23
2022-11-03T10:22:58.061Z,16.10
2022-11-03T10:25:37.464Z,15.98
2022-11-03T10:28:18.222Z,15.92
2022-11-03T10:33:42.260Z,15.94
2022-11-03T10:36:25.962Z,15.95
2022-11-03T10:38:55.178Z,15.93
2022-11-03T10:41:25.428Z,15.96
2022-11-03T10:44:07.797Z,15.85
2022-11-03T10:46:50.383Z,15.81
2022-11-03T10:49:21.312Z,15.74
2022-11-03T10:51:52.492Z,15.61
2022-11-03T10:54:23.442Z,15.60
2022-11-03T10:56:53.159Z,15.54
2022-11-03T10:59:24.567Z,15.48
2022-11-03T11:01:53.533Z,15.61
2022-11-03T11:04:22.815Z,15.65
2022-11-03T11:06:52.330Z,15.87
2022-11-03T11:09:25.085Z,15.94
2022-11-03T11:12:15.768Z,15.94
2022-11-03T11:14:55.332Z,16.02
2022-11-03T11:17:56.593Z,16.03
2022-11-03T11:20:34.233Z,16.17
2022-11-03T11:23:52.022Z,16.15
2022-11-03T11:26:40.897Z,16.10
2022-11-03T11:29:35.991Z,16.22
2022-11-03T11:32:47.240Z,16.26
2022-11-03T11:35:40.196Z,16.34
2022-11-03T11:38:44.566Z,16.26
2022-11-03T11:41:13.793Z,16.01
2022-11-03T11:43:42.614Z,15.98
2022-11-03T11:46:39.445Z,16.09
2022-11-03T11:49:18.712Z,16.14
2022-11-03T11:51:47.781Z,16.15
2022-11-03T11:54:20.562Z,16.14
2022-11-03T11:56:51.070Z,16.06
2022-11-03T11:59:25.849Z,16.00
2022-11-03T12:01:57.211Z,15.93
2022-11-03T12:04:30.788Z,15.90
2022-11-03T12:06:59.550Z,16.04
2022-11-03T12:09:28.907Z,16.08
2022-11-03T12:12:02.094Z,15.94
2022-11-03T12:14:38.398Z,15.87
2022-11-03T12:17:37.007Z,15.94
2022-11-03T12:20:35.994Z,15.91
2022-11-03T12:23:04.807Z,15.87
2022-11-03T12:25:39.844Z,15.87
2022-11-03T12:28:09.241Z,15.94
2022-11-03T12:30:40.010Z,15.99
2022-11-03T12:33:10.227Z,15.85
2022-11-03T12:35:39.452Z,15.80
2022-11-03T12:38:08.171Z,15.85
2022-11-03T12:40:37.042Z,15.86
2022-11-03T12:43:14.674Z,15.80
2022-11-03T12:45:46.399Z,15.76
2022-11-03T12:48:15.241Z,15.85
2022-11-03T12:50:44.102Z,15.91
2022-11-03T12:53:12.886Z,15.92
2022-11-03T12:55:44.591Z,15.97
2022-11-03T12:58:13.920Z,15.93
2022-11-03T13:00:46.325Z,15.80
2022-11-03T13:03:18.500Z,15.70
2022-11-03T13:05:48.159Z,15.64
2022-11-03T13:10:47.051Z,15.50
2022-11-03T13:13:15.803Z,15.45
2022-11-03T13:15:44.853Z,15.66
2022-11-03T13:18:14.406Z,15.67
2022-11-03T13:20:44.625Z,15.65
2022-11-03T13:23:16.179Z,15.55
2022-11-03T13:25:47.558Z,15.52
2022-11-03T13:28:16.331Z,15.46
2022-11-03T13:30:45.043Z,15.48
2022-11-03T13:33:13.884Z,15.42
2022-11-03T13:35:42.805Z,15.30
2022-11-03T13:38:11.830Z,15.29
2022-11-03T13:40:56.354Z,15.18
2022-11-03T13:43:26.397Z,15.07
2022-11-03T13:45:58.208Z,15.15
2022-11-03T13:51:17.283Z,15.14
2022-11-03T14:04:46.212Z,14.42
2022-11-03T14:07:15.117Z,14.40
2022-11-03T14:09:43.875Z,14.32
2022-11-03T14:12:30.933Z,14.32
2022-11-03T14:15:00.317Z,14.46
2022-11-03T14:17:29.017Z,14.52
2022-11-03T14:20:01.050Z,14.50
2022-11-03T14:22:33.134Z,14.56
2022-11-03T14:25:02.419Z,14.65
2022-11-03T14:27:31.335Z,14.73
2022-11-03T14:30:00.195Z,14.66
2022-11-03T14:32:29.025Z,14.54
2022-11-03T14:34:57.735Z,14.45
2022-11-03T14:37:27.080Z,14.52
2022-11-03T14:39:56.091Z,14.40
2022-11-03T14:42:25.058Z,14.38
2022-11-03T14:44:54.654Z,14.40
2022-11-03T14:47:25.198Z,14.33
2022-11-03T14:49:54.058Z,14.21
2022-11-03T14:52:22.867Z,14.22
2022-11-03T14:54:51.881Z,14.10
2022-11-03T14:57:22.463Z,14.06
2022-11-03T14:59:53.592Z,13.97
2022-11-03T15:02:23.034Z,13.92
2022-11-03T15:04:51.932Z,13.86
2022-11-03T15:07:20.965Z,13.75
2022-11-03T15:09:49.866Z,13.71
2022-11-03T15:12:18.644Z,13.64
2022-11-03T15:14:47.754Z,13.50
2022-11-03T15:17:16.821Z,13.43
2022-11-03T15:19:45.845Z,13.28
2022-11-03T15:22:14.856Z,13.12
2022-11-03T15:27:33.125Z,12.83
2022-11-03T15:30:01.917Z,12.77
2022-11-03T15:32:36.170Z,12.67
2022-11-03T15:35:06.884Z,12.63
2022-11-03T15:37:35.751Z,12.52
2022-11-03T15:40:06.216Z,12.45
2022-11-03T15:42:35.847Z,12.41
2022-11-03T15:45:05.886Z,12.38
2022-11-03T15:47:35.015Z,12.26
2022-11-03T15:50:03.853Z,12.11
2022-11-03T15:52:33.127Z,12.10
2022-11-03T15:55:02.414Z,12.07
2022-11-03T15:57:31.499Z,12.03
2022-11-03T16:00:00.352Z,11.97
2022-11-03T16:02:41.483Z,11.92
2022-11-03T16:05:11.500Z,11.96
2022-11-03T16:07:40.326Z,11.95
2022-11-03T16:10:10.163Z,11.80
2022-11-03T16:12:39.126Z,11.67
2022-11-03T16:15:10.516Z,11.72
2022-11-03T16:17:45.253Z,11.67
2022-11-03T16:20:14.545Z,11.71
2022-11-03T16:22:43.658Z,11.71
2022-11-03T16:25:16.596Z,11.64
2022-11-03T16:27:47.969Z,11.69
2022-11-03T16:30:16.962Z,11.62
2022-11-03T16:32:45.989Z,11.50
2022-11-03T16:35:15.218Z,11.40
2022-11-03T16:37:44.253Z,11.36
2022-11-03T16:40:19.039Z,11.28
2022-11-03T16:42:48.390Z,11.23
2022-11-03T16:45:19.151Z,11.17
2022-11-03T16:47:49.616Z,11.10
2022-11-03T16:50:19.837Z,11.04
2022-11-03T16:52:49.793Z,11.00
2022-11-03T16:55:19.954Z,11.04
2022-11-03T16:57:49.439Z,11.09
2022-11-03T17:00:20.083Z,11.11
2022-11-03T17:02:49.104Z,10.96
2022-11-03T17:05:20.993Z,10.77
2022-11-03T17:07:53.911Z,10.69
2022-11-03T17:10:23.791Z,10.52
2022-11-03T17:12:52.591Z,10.46
2022-11-03T17:15:21.642Z,10.40
2022-11-03T17:17:51.071Z,10.40
2022-11-03T17:20:19.981Z,10.27
2022-11-03T17:22:48.824Z,10.34
2022-11-03T17:25:18.690Z,10.23
2022-11-03T17:27:49.612Z,10.20
2022-11-03T17:30:20.759Z,10.14
2022-11-03T17:32:51.534Z,10.11
2022-11-03T17:35:21.977Z,10.04
2022-11-03T17:37:52.732Z,10.12
2022-11-03T17:40:24.677Z,10.06
2022-11-03T17:42:55.175Z,9.97
2022-11-03T17:45:26.971Z,9.89
2022-11-03T17:47:55.874Z,9.86
2022-11-03T17:50:26.067Z,9.87
2022-11-03T17:52:56.115Z,9.79
2022-11-03T17:55:29.003Z,9.74
2022-11-03T17:58:04.701Z,9.73
2022-11-03T18:00:34.536Z,9.63
2022-11-03T18:03:08.049Z,9.58
2022-11-03T18:05:38.379Z,9.49
2022-11-03T18:08:11.863Z,9.51
2022-11-03T18:10:44.514Z,9.54
2022-11-03T18:13:19.434Z,9.62
2022-11-03T18:15:51.492Z,9.57
2022-11-03T18:18:25.421Z,9.54
2022-11-03T18:20:55.983Z,9.47
2022-11-03T18:23:28.239Z,9.45
2022-11-03T18:26:00.613Z,9.38
2022-11-03T18:28:31.774Z,9.37
2022-11-03T18:31:05.282Z,9.38
2022-11-03T18:33:36.596Z,9.42
2022-11-03T18:36:07.958Z,9.36
2022-11-03T18:38:40.513Z,9.33
2022-11-03T18:41:34.263Z,9.22
2022-11-03T18:44:07.887Z,9.20
2022-11-03T18:46:38.392Z,9.21
2022-11-03T18:49:08.967Z,9.25
2022-11-03T18:51:41.499Z,9.35
2022-11-03T18:54:15.136Z,9.37
2022-11-03T18:56:44.446Z,9.34
2022-11-03T18:59:22.088Z,9.10
2022-11-03T19:01:51.543Z,9.12
2022-11-03T19:04:21.081Z,9.13
2022-11-03T19:06:53.399Z,9.23
2022-11-03T19:09:25.946Z,9.19
2022-11-03T19:11:58.268Z,9.10
2022-11-03T19:14:32.202Z,9.05
2022-11-03T19:19:54.923Z,8.97
2022-11-03T19:22:25.200Z,8.96
2022-11-03T19:24:54.309Z,9.07
2022-11-03T19:27:30.156Z,9.08
2022-11-03T19:30:00.765Z,9.04
2022-11-03T19:32:36.322Z,8.98
2022-11-03T19:35:08.067Z,9.05
2022-11-03T19:37:38.114Z,9.05
2022-11-03T19:40:13.604Z,9.00
2022-11-03T19:42:44.067Z,8.92
2022-11-03T19:45:24.558Z,8.82
2022-11-03T19:50:53.410Z,8.90
2022-11-03T19:53:26.919Z,8.88
2022-11-03T19:55:58.161Z,8.93
2022-11-03T19:58:30.463Z,8.99
2022-11-03T20:01:04.266Z,8.89
2022-11-03T20:03:39.864Z,8.78
2022-11-03T20:06:15.380Z,8.84
2022-11-03T20:08:48.821Z,8.84
2022-11-03T20:11:19.672Z,8.65
2022-11-03T20:13:53.113Z,8.68
2022-11-03T20:16:23.021Z,8.74
2022-11-03T20:18:53.867Z,8.61
2022-11-03T20:21:23.683Z,8.59
2022-11-03T20:23:53.368Z,8.68
2022-11-03T20:26:25.392Z,8.76
2022-11-03T20:28:56.994Z,8.83
2022-11-03T20:31:26.658Z,8.94
2022-11-03T20:33:56.333Z,8.91
2022-11-03T20:36:26.914Z,8.88
2022-11-03T20:38:59.606Z,8.88
2022-11-03T20:41:31.826Z,8.96
2022-11-03T20:44:01.304Z,8.93
2022-11-03T20:46:33.758Z,8.92
2022-11-03T20:49:03.435Z,8.80
2022-11-03T20:51:35.551Z,8.79
2022-11-03T20:54:13.153Z,8.74
2022-11-03T20:56:48.029Z,8.67
2022-11-03T20:59:18.593Z,8.70
2022-11-03T21:01:49.387Z,8.70
2022-11-03T21:04:20.887Z,8.81
2022-11-03T21:06:50.636Z,8.91
2022-11-03T21:09:21.052Z,8.91
2022-11-03T21:11:53.482Z,8.88
2022-11-03T21:14:28.260Z,8.84
2022-11-03T21:17:15.859Z,8.81
2022-11-03T21:20:01.938Z,8.75
2022-11-03T21:22:52.015Z,8.68
2022-11-03T21:25:23.856Z,8.75
2022-11-03T21:27:54.478Z,8.76
2022-11-03T21:30:24.305Z,8.86
2022-11-03T21:32:53.344Z,8.87
2022-11-03T21:35:23.144Z,8.84
2022-11-03T21:37:52.033Z,8.92
2022-11-03T21:40:21.229Z,9.04
2022-11-03T21:43:08.862Z,8.98
2022-11-03T21:45:38.303Z,8.87
2022-11-03T21:48:27.303Z,8.84
2022-11-03T21:51:02.011Z,8.93
2022-11-03T21:53:32.989Z,9.03
2022-11-03T21:56:01.933Z,8.93
2022-11-03T21:58:32.684Z,8.89
2022-11-03T22:01:04.660Z,8.90
2022-11-03T22:03:35.681Z,8.93
2022-11-03T22:06:08.579Z,8.98
2022-11-03T22:08:38.613Z,9.00
2022-11-03T22:11:23.407Z,9.00
2022-11-03T22:13:55.604Z,8.84
2022-11-03T22:16:37.419Z,8.94
2022-11-03T22:19:27.284Z,9.03
2022-11-03T22:22:14.550Z,9.11
2022-11-03T22:25:01.170Z,9.33
2022-11-03T22:27:32.329Z,9.48
2022-11-03T22:30:20.637Z,9.45
2022-11-03T22:32:53.146Z,9.44
2022-11-03T22:35:44.015Z,9.44
2022-11-03T22:38:14.652Z,9.42
2022-11-03T22:41:04.465Z,9.43
2022-11-03T22:43:51.786Z,9.38
2022-11-03T22:46:20.517Z,9.35
2022-11-03T22:48:49.328Z,9.32
2022-11-03T22:51:19.027Z,9.42
2022-11-03T22:54:05.645Z,9.55
2022-11-03T22:56:34.431Z,9.53
2022-11-03T22:59:03.315Z,9.57
2022-11-03T23:01:32.299Z,9.55
2022-11-03T23:04:01.263Z,9.55
2022-11-03T23:06:34.870Z,9.47
2022-11-03T23:09:04.173Z,9.61
2022-11-03T23:11:33.534Z,9.69
2022-11-03T23:14:04.674Z,9.78
2022-11-03T23:16:34.815Z,9.76
2022-11-03T23:19:21.743Z,9.75
2022-11-03T23:21:52.662Z,9.90
2022-11-03T23:24:44.005Z,9.95
2022-11-03T23:27:14.276Z,9.86
2022-11-03T23:29:43.072Z,9.80
2022-11-03T23:32:12.014Z,9.78
2022-11-03T23:34:41.681Z,9.78
2022-11-03T23:37:10.349Z,9.77
2022-11-03T23:39:39.061Z,9.79
2022-11-03T23:42:08.332Z,9.71
2022-11-03T23:44:51.394Z,9.55
2022-11-03T23:47:49.787Z,9.48
2022-11-03T23:50:18.771Z,9.53
2022-11-03T23:52:47.559Z,9.49
2022-11-03T23:55:16.519Z,9.45
2022-11-03T23:58:03.162Z,9.44
